sensor_id;sensor_type;location;lat;lon;timestamp;pressure;altitude;pressure_sealevel;temperature;humidity
59154;BME280;44935;48.944;9.418;2023-08-20T00:00:19;98996.29;;;25.59;48.63
59154;BME280;44935;48.944;9.418;2023-08-20T00:02:46;98997.97;;;25.64;48.45
59154;BME280;44935;48.944;9.418;2023-08-20T00:05:17;98995.89;;;25.50;48.72
59154;BME280;44935;48.944;9.418;2023-08-20T00:07:44;98995.85;;;25.31;48.94
59154;BME280;44935;48.944;9.418;2023-08-20T00:10:11;98995.90;;;25.57;48.52
59154;BME280;44935;48.944;9.418;2023-08-20T00:12:38;98998.61;;;25.06;48.90
59154;BME280;44935;48.944;9.418;2023-08-20T00:15:06;99005.54;;;24.53;49.81
59154;BME280;44935;48.944;9.418;2023-08-20T00:17:34;99008.98;;;24.36;51.02
59154;BME280;44935;48.944;9.418;2023-08-20T00:20:02;99011.57;;;24.18;51.40
59154;BME280;44935;48.944;9.418;2023-08-20T00:22:30;99012.66;;;24.58;50.71
59154;BME280;44935;48.944;9.418;2023-08-20T00:24:59;99011.23;;;24.67;50.07
59154;BME280;44935;48.944;9.418;2023-08-20T00:27:26;99012.84;;;24.05;50.99
59154;BME280;44935;48.944;9.418;2023-08-20T00:29:52;99014.49;;;23.96;51.12
59154;BME280;44935;48.944;9.418;2023-08-20T00:32:19;99015.86;;;24.35;50.85
59154;BME280;44935;48.944;9.418;2023-08-20T00:34:46;99014.43;;;24.33;50.93
59154;BME280;44935;48.944;9.418;2023-08-20T00:37:13;99013.10;;;24.57;50.55
59154;BME280;44935;48.944;9.418;2023-08-20T00:39:40;99017.46;;;24.43;50.69
59154;BME280;44935;48.944;9.418;2023-08-20T00:42:08;99018.28;;;24.27;51.46
59154;BME280;44935;48.944;9.418;2023-08-20T00:44:35;99021.43;;;24.49;51.12
59154;BME280;44935;48.944;9.418;2023-08-20T00:47:04;99025.56;;;24.74;50.50
59154;BME280;44935;48.944;9.418;2023-08-20T00:49:32;99028.74;;;24.42;50.68
59154;BME280;44935;48.944;9.418;2023-08-20T00:51:59;99030.56;;;24.83;49.93
59154;BME280;44935;48.944;9.418;2023-08-20T00:54:26;99027.15;;;25.03;49.66
59154;BME280;44935;48.944;9.418;2023-08-20T00:56:54;99028.21;;;24.98;49.65
59154;BME280;44935;48.944;9.418;2023-08-20T00:59:23;99027.34;;;24.46;49.92
59154;BME280;44935;48.944;9.418;2023-08-20T01:01:50;99024.84;;;24.68;49.66
59154;BME280;44935;48.944;9.418;2023-08-20T01:04:17;99023.80;;;24.83;49.37
59154;BME280;44935;48.944;9.418;2023-08-20T01:06:50;99025.43;;;24.89;49.28
59154;BME280;44935;48.944;9.418;2023-08-20T01:09:26;99023.36;;;24.84;49.31
59154;BME280;44935;48.944;9.418;2023-08-20T01:11:59;99023.82;;;24.33;50.24
59154;BME280;44935;48.944;9.418;2023-08-20T01:14:26;99022.30;;;24.85;49.82
59154;BME280;44935;48.944;9.418;2023-08-20T01:16:53;99020.59;;;25.01;49.11
59154;BME280;44935;48.944;9.418;2023-08-20T01:19:21;99023.00;;;25.07;48.85
59154;BME280;44935;48.944;9.418;2023-08-20T01:22:00;99025.83;;;25.28;48.43
59154;BME280;44935;48.944;9.418;2023-08-20T01:24:44;99028.63;;;25.22;48.52
59154;BME280;44935;48.944;9.418;2023-08-20T01:27:28;99027.75;;;25.27;48.55
59154;BME280;44935;48.944;9.418;2023-08-20T01:29:56;99029.35;;;25.38;48.81
59154;BME280;44935;48.944;9.418;2023-08-20T01:32:25;99027.39;;;24.86;49.24
59154;BME280;44935;48.944;9.418;2023-08-20T01:34:52;99026.47;;;25.14;48.69
59154;BME280;44935;48.944;9.418;2023-08-20T01:37:20;99025.82;;;25.19;48.49
59154;BME280;44935;48.944;9.418;2023-08-20T01:39:46;99029.59;;;25.01;48.80
59154;BME280;44935;48.944;9.418;2023-08-20T01:42:13;99035.16;;;24.94;48.91
59154;BME280;44935;48.944;9.418;2023-08-20T01:44:40;99032.16;;;25.00;49.28
59154;BME280;44935;48.944;9.418;2023-08-20T01:47:07;99030.43;;;24.96;48.87
59154;BME280;44935;48.944;9.418;2023-08-20T01:49:34;99031.29;;;25.15;48.94
59154;BME280;44935;48.944;9.418;2023-08-20T01:52:01;99029.42;;;25.17;49.19
59154;BME280;44935;48.944;9.418;2023-08-20T01:54:28;99031.80;;;24.97;48.67
59154;BME280;44935;48.944;9.418;2023-08-20T01:56:55;99032.88;;;24.92;48.29
59154;BME280;44935;48.944;9.418;2023-08-20T01:59:22;99033.26;;;25.15;48.46
59154;BME280;44935;48.944;9.418;2023-08-20T02:01:49;99032.33;;;25.67;47.65
59154;BME280;44935;48.944;9.418;2023-08-20T02:04:16;99037.73;;;25.56;47.81
59154;BME280;44935;48.944;9.418;2023-08-20T02:06:43;99037.35;;;25.13;48.46
59154;BME280;44935;48.944;9.418;2023-08-20T02:09:10;99041.10;;;25.08;48.47
59154;BME280;44935;48.944;9.418;2023-08-20T02:11:37;99042.71;;;25.27;48.01
59154;BME280;44935;48.944;9.418;2023-08-20T02:14:04;99041.03;;;25.12;48.33
59154;BME280;44935;48.944;9.418;2023-08-20T02:16:31;99044.45;;;25.15;48.20
59154;BME280;44935;48.944;9.418;2023-08-20T02:18:58;99046.49;;;25.07;48.20
59154;BME280;44935;48.944;9.418;2023-08-20T02:21:25;99045.93;;;25.13;47.97
59154;BME280;44935;48.944;9.418;2023-08-20T02:23:52;99047.38;;;25.09;48.17
59154;BME280;44935;48.944;9.418;2023-08-20T02:26:19;99049.72;;;24.74;48.65
59154;BME280;44935;48.944;9.418;2023-08-20T02:28:46;99044.74;;;24.10;49.68
59154;BME280;44935;48.944;9.418;2023-08-20T02:31:13;99044.08;;;23.89;49.93
59154;BME280;44935;48.944;9.418;2023-08-20T02:33:40;99046.59;;;24.31;49.63
59154;BME280;44935;48.944;9.418;2023-08-20T02:36:07;99045.35;;;24.16;49.44
59154;BME280;44935;48.944;9.418;2023-08-20T02:38:34;99043.73;;;24.38;49.95
59154;BME280;44935;48.944;9.418;2023-08-20T02:41:01;99046.65;;;24.15;50.21
59154;BME280;44935;48.944;9.418;2023-08-20T02:43:29;99045.90;;;24.33;49.87
59154;BME280;44935;48.944;9.418;2023-08-20T02:45:56;99044.31;;;24.71;49.10
59154;BME280;44935;48.944;9.418;2023-08-20T02:48:23;99042.82;;;24.71;49.17
59154;BME280;44935;48.944;9.418;2023-08-20T02:50:49;99036.79;;;24.38;48.79
59154;BME280;44935;48.944;9.418;2023-08-20T02:53:16;99034.92;;;24.68;48.27
59154;BME280;44935;48.944;9.418;2023-08-20T02:55:43;99031.72;;;24.60;48.40
59154;BME280;44935;48.944;9.418;2023-08-20T02:58:10;99029.83;;;25.26;47.31
59154;BME280;44935;48.944;9.418;2023-08-20T03:00:37;99025.29;;;24.91;48.03
59154;BME280;44935;48.944;9.418;2023-08-20T03:03:05;99024.54;;;24.84;48.10
59154;BME280;44935;48.944;9.418;2023-08-20T03:05:32;99023.97;;;24.84;48.02
59154;BME280;44935;48.944;9.418;2023-08-20T03:07:59;99017.79;;;25.14;47.53
59154;BME280;44935;48.944;9.418;2023-08-20T03:10:27;99014.17;;;24.99;47.77
59154;BME280;44935;48.944;9.418;2023-08-20T03:12:54;99014.25;;;24.87;47.95
59154;BME280;44935;48.944;9.418;2023-08-20T03:15:21;99013.75;;;24.88;47.97
59154;BME280;44935;48.944;9.418;2023-08-20T03:17:48;99011.75;;;24.65;48.26
59154;BME280;44935;48.944;9.418;2023-08-20T03:20:15;99006.21;;;24.79;48.06
59154;BME280;44935;48.944;9.418;2023-08-20T03:22:42;99004.61;;;24.66;48.70
59154;BME280;44935;48.944;9.418;2023-08-20T03:25:09;99007.88;;;24.49;48.51
59154;BME280;44935;48.944;9.418;2023-08-20T03:27:35;99011.72;;;25.10;47.42
59154;BME280;44935;48.944;9.418;2023-08-20T03:30:03;99018.57;;;25.12;47.12
59154;BME280;44935;48.944;9.418;2023-08-20T03:32:31;99025.78;;;25.18;47.53
59154;BME280;44935;48.944;9.418;2023-08-20T03:34:58;99023.91;;;25.23;47.18
59154;BME280;44935;48.944;9.418;2023-08-20T03:37:25;99021.49;;;24.79;47.88
59154;BME280;44935;48.944;9.418;2023-08-20T03:39:53;99023.40;;;24.94;47.95
59154;BME280;44935;48.944;9.418;2023-08-20T03:42:20;99030.12;;;23.79;49.47
59154;BME280;44935;48.944;9.418;2023-08-20T03:44:47;99041.67;;;23.56;50.39
59154;BME280;44935;48.944;9.418;2023-08-20T03:47:14;99052.06;;;22.94;51.31
59154;BME280;44935;48.944;9.418;2023-08-20T03:49:41;99054.75;;;22.53;52.35
59154;BME280;44935;48.944;9.418;2023-08-20T03:52:08;99058.03;;;22.61;52.88
59154;BME280;44935;48.944;9.418;2023-08-20T03:54:35;99055.61;;;22.82;52.55
59154;BME280;44935;48.944;9.418;2023-08-20T03:57:03;99048.08;;;23.08;51.53
59154;BME280;44935;48.944;9.418;2023-08-20T03:59:30;99045.21;;;23.60;50.07
59154;BME280;44935;48.944;9.418;2023-08-20T04:01:58;99041.85;;;23.37;50.77
59154;BME280;44935;48.944;9.418;2023-08-20T04:04:25;99036.35;;;24.05;49.19
59154;BME280;44935;48.944;9.418;2023-08-20T04:06:52;99034.95;;;24.03;48.68
59154;BME280;44935;48.944;9.418;2023-08-20T04:09:19;99038.90;;;24.00;48.68
59154;BME280;44935;48.944;9.418;2023-08-20T04:11:46;99046.21;;;24.33;47.79
59154;BME280;44935;48.944;9.418;2023-08-20T04:14:13;99045.08;;;24.36;48.21
59154;BME280;44935;48.944;9.418;2023-08-20T04:16:40;99047.24;;;24.48;48.16
59154;BME280;44935;48.944;9.418;2023-08-20T04:19:12;99047.50;;;24.28;48.03
59154;BME280;44935;48.944;9.418;2023-08-20T04:21:39;99047.56;;;24.33;48.36
59154;BME280;44935;48.944;9.418;2023-08-20T04:24:06;99050.27;;;24.02;49.25
59154;BME280;44935;48.944;9.418;2023-08-20T04:26:39;99052.79;;;23.54;50.41
59154;BME280;44935;48.944;9.418;2023-08-20T04:29:06;99058.90;;;23.57;50.05
59154;BME280;44935;48.944;9.418;2023-08-20T04:31:32;99058.17;;;23.92;49.42
59154;BME280;44935;48.944;9.418;2023-08-20T04:33:59;99057.93;;;23.64;49.88
59154;BME280;44935;48.944;9.418;2023-08-20T04:36:26;99057.39;;;23.63;49.83
59154;BME280;44935;48.944;9.418;2023-08-20T04:38:54;99060.46;;;23.36;50.64
59154;BME280;44935;48.944;9.418;2023-08-20T04:41:21;99052.78;;;23.57;50.05
59154;BME280;44935;48.944;9.418;2023-08-20T04:43:48;99047.16;;;23.87;49.61
59154;BME280;44935;48.944;9.418;2023-08-20T04:46:15;99040.68;;;24.34;48.66
59154;BME280;44935;48.944;9.418;2023-08-20T04:48:42;99044.42;;;23.87;49.09
59154;BME280;44935;48.944;9.418;2023-08-20T04:51:09;99044.66;;;24.23;48.77
59154;BME280;44935;48.944;9.418;2023-08-20T04:53:36;99055.23;;;23.57;49.88
59154;BME280;44935;48.944;9.418;2023-08-20T04:56:03;99059.37;;;23.22;50.93
59154;BME280;44935;48.944;9.418;2023-08-20T04:58:30;99058.88;;;22.98;51.86
59154;BME280;44935;48.944;9.418;2023-08-20T05:00:57;99060.13;;;22.57;52.11
59154;BME280;44935;48.944;9.418;2023-08-20T05:03:25;99056.83;;;22.58;52.53
59154;BME280;44935;48.944;9.418;2023-08-20T05:05:52;99056.02;;;22.47;52.83
59154;BME280;44935;48.944;9.418;2023-08-20T05:08:19;99061.06;;;22.27;53.37
59154;BME280;44935;48.944;9.418;2023-08-20T05:10:46;99065.79;;;22.15;53.77
59154;BME280;44935;48.944;9.418;2023-08-20T05:13:13;99067.46;;;22.47;53.67
59154;BME280;44935;48.944;9.418;2023-08-20T05:15:40;99067.44;;;22.44;53.43
59154;BME280;44935;48.944;9.418;2023-08-20T05:18:07;99066.81;;;23.02;52.58
59154;BME280;44935;48.944;9.418;2023-08-20T05:20:34;99067.93;;;23.21;52.15
59154;BME280;44935;48.944;9.418;2023-08-20T05:23:01;99070.91;;;22.87;52.08
59154;BME280;44935;48.944;9.418;2023-08-20T05:25:28;99074.77;;;22.92;52.50
59154;BME280;44935;48.944;9.418;2023-08-20T05:27:55;99076.98;;;22.74;53.15
59154;BME280;44935;48.944;9.418;2023-08-20T05:30:22;99077.91;;;22.83;53.09
59154;BME280;44935;48.944;9.418;2023-08-20T05:32:49;99078.79;;;23.49;52.01
59154;BME280;44935;48.944;9.418;2023-08-20T05:35:16;99076.04;;;23.53;51.07
59154;BME280;44935;48.944;9.418;2023-08-20T05:37:43;99079.29;;;24.08;50.47
59154;BME280;44935;48.944;9.418;2023-08-20T05:40:10;99082.38;;;23.84;50.64
59154;BME280;44935;48.944;9.418;2023-08-20T05:42:38;99093.90;;;23.61;51.36
59154;BME280;44935;48.944;9.418;2023-08-20T05:45:05;99094.25;;;23.70;51.72
59154;BME280;44935;48.944;9.418;2023-08-20T05:47:32;99086.99;;;24.00;51.50
59154;BME280;44935;48.944;9.418;2023-08-20T05:49:59;99073.85;;;23.46;52.10
59154;BME280;44935;48.944;9.418;2023-08-20T05:52:26;99064.93;;;23.89;51.29
59154;BME280;44935;48.944;9.418;2023-08-20T05:54:53;99056.68;;;24.33;51.08
59154;BME280;44935;48.944;9.418;2023-08-20T05:57:20;99064.02;;;24.41;51.25
59154;BME280;44935;48.944;9.418;2023-08-20T05:59:47;99065.46;;;24.25;50.49
59154;BME280;44935;48.944;9.418;2023-08-20T06:02:16;99072.62;;;23.50;52.12
59154;BME280;44935;48.944;9.418;2023-08-20T06:04:43;99073.53;;;24.61;50.15
59154;BME280;44935;48.944;9.418;2023-08-20T06:07:09;99080.95;;;24.88;49.72
59154;BME280;44935;48.944;9.418;2023-08-20T06:09:36;99083.08;;;25.19;49.70
59154;BME280;44935;48.944;9.418;2023-08-20T06:12:04;99089.95;;;25.07;48.94
59154;BME280;44935;48.944;9.418;2023-08-20T06:14:31;99091.26;;;25.01;48.66
59154;BME280;44935;48.944;9.418;2023-08-20T06:16:58;99095.68;;;25.09;48.97
59154;BME280;44935;48.944;9.418;2023-08-20T06:19:25;99089.12;;;25.33;48.94
59154;BME280;44935;48.944;9.418;2023-08-20T06:21:53;99089.80;;;25.33;49.66
59154;BME280;44935;48.944;9.418;2023-08-20T06:24:20;99094.39;;;24.37;50.64
59154;BME280;44935;48.944;9.418;2023-08-20T06:26:47;99103.23;;;24.46;51.13
59154;BME280;44935;48.944;9.418;2023-08-20T06:29:13;99113.41;;;23.85;53.07
59154;BME280;44935;48.944;9.418;2023-08-20T06:31:41;99117.54;;;24.21;52.63
59154;BME280;44935;48.944;9.418;2023-08-20T06:34:08;99124.46;;;23.58;53.92
59154;BME280;44935;48.944;9.418;2023-08-20T06:36:35;99127.90;;;23.62;54.59
59154;BME280;44935;48.944;9.418;2023-08-20T06:39:02;99122.50;;;24.22;54.51
59154;BME280;44935;48.944;9.418;2023-08-20T06:41:30;99116.02;;;24.00;54.20
59154;BME280;44935;48.944;9.418;2023-08-20T06:43:56;99116.66;;;24.57;52.99
59154;BME280;44935;48.944;9.418;2023-08-20T06:46:23;99119.40;;;25.13;51.38
59154;BME280;44935;48.944;9.418;2023-08-20T06:48:51;99119.66;;;25.47;51.16
59154;BME280;44935;48.944;9.418;2023-08-20T06:51:20;99119.93;;;24.15;54.34
59154;BME280;44935;48.944;9.418;2023-08-20T06:53:47;99120.17;;;22.94;55.49
59154;BME280;44935;48.944;9.418;2023-08-20T06:56:14;99117.83;;;24.89;52.47
59154;BME280;44935;48.944;9.418;2023-08-20T06:58:42;99119.53;;;24.29;53.01
59154;BME280;44935;48.944;9.418;2023-08-20T07:01:09;99114.43;;;24.79;52.60
59154;BME280;44935;48.944;9.418;2023-08-20T07:03:38;99116.17;;;26.04;51.18
59154;BME280;44935;48.944;9.418;2023-08-20T07:06:06;99117.74;;;25.65;50.71
59154;BME280;44935;48.944;9.418;2023-08-20T07:08:33;99118.97;;;26.04;49.76
59154;BME280;44935;48.944;9.418;2023-08-20T07:11:01;99116.02;;;26.34;49.86
59154;BME280;44935;48.944;9.418;2023-08-20T07:13:28;99117.74;;;25.47;50.23
59154;BME280;44935;48.944;9.418;2023-08-20T07:15:55;99121.00;;;25.19;50.79
59154;BME280;44935;48.944;9.418;2023-08-20T07:18:21;99124.20;;;26.03;49.37
59154;BME280;44935;48.944;9.418;2023-08-20T07:20:51;99124.04;;;26.81;48.98
59154;BME280;44935;48.944;9.418;2023-08-20T07:23:18;99123.84;;;26.19;48.91
59154;BME280;44935;48.944;9.418;2023-08-20T07:25:45;99126.26;;;26.66;49.11
59154;BME280;44935;48.944;9.418;2023-08-20T07:28:12;99128.69;;;26.79;48.61
59154;BME280;44935;48.944;9.418;2023-08-20T07:30:39;99132.71;;;27.03;48.40
59154;BME280;44935;48.944;9.418;2023-08-20T07:33:07;99129.30;;;27.43;47.91
59154;BME280;44935;48.944;9.418;2023-08-20T07:35:34;99135.84;;;26.81;48.03
59154;BME280;44935;48.944;9.418;2023-08-20T07:38:02;99139.10;;;26.85;47.77
59154;BME280;44935;48.944;9.418;2023-08-20T07:40:29;99142.06;;;27.10;48.08
59154;BME280;44935;48.944;9.418;2023-08-20T07:42:56;99142.92;;;25.78;52.10
59154;BME280;44935;48.944;9.418;2023-08-20T07:45:23;99142.60;;;23.78;55.87
59154;BME280;44935;48.944;9.418;2023-08-20T07:47:50;99139.39;;;25.94;51.48
59154;BME280;44935;48.944;9.418;2023-08-20T07:50:17;99139.81;;;27.00;49.14
59154;BME280;44935;48.944;9.418;2023-08-20T07:52:44;99140.54;;;27.03;48.72
59154;BME280;44935;48.944;9.418;2023-08-20T07:55:11;99142.44;;;27.15;48.25
59154;BME280;44935;48.944;9.418;2023-08-20T07:57:37;99141.85;;;26.54;50.11
59154;BME280;44935;48.944;9.418;2023-08-20T08:00:06;99143.15;;;27.28;48.82
59154;BME280;44935;48.944;9.418;2023-08-20T08:02:33;99142.12;;;27.71;48.26
59154;BME280;44935;48.944;9.418;2023-08-20T08:05:00;99146.04;;;27.94;47.22
59154;BME280;44935;48.944;9.418;2023-08-20T08:07:27;99149.87;;;28.19;46.86
59154;BME280;44935;48.944;9.418;2023-08-20T08:09:54;99152.24;;;28.36;46.64
59154;BME280;44935;48.944;9.418;2023-08-20T08:12:21;99150.95;;;28.20;46.81
59154;BME280;44935;48.944;9.418;2023-08-20T08:14:48;99150.62;;;27.90;47.15
59154;BME280;44935;48.944;9.418;2023-08-20T08:17:15;99153.45;;;27.95;46.90
59154;BME280;44935;48.944;9.418;2023-08-20T08:19:42;99155.23;;;28.29;46.80
59154;BME280;44935;48.944;9.418;2023-08-20T08:22:09;99157.90;;;26.41;50.45
59154;BME280;44935;48.944;9.418;2023-08-20T08:24:36;99156.98;;;24.48;54.95
59154;BME280;44935;48.944;9.418;2023-08-20T08:27:02;99157.42;;;24.95;54.32
59154;BME280;44935;48.944;9.418;2023-08-20T08:29:30;99155.37;;;27.13;49.72
59154;BME280;44935;48.944;9.418;2023-08-20T08:31:56;99156.97;;;27.16;50.46
59154;BME280;44935;48.944;9.418;2023-08-20T08:34:23;99153.02;;;27.87;48.59
59154;BME280;44935;48.944;9.418;2023-08-20T08:36:50;99154.71;;;28.44;48.11
59154;BME280;44935;48.944;9.418;2023-08-20T08:39:17;99154.51;;;27.84;48.45
59154;BME280;44935;48.944;9.418;2023-08-20T08:41:47;99151.74;;;27.14;50.03
59154;BME280;44935;48.944;9.418;2023-08-20T08:44:16;99154.27;;;27.67;48.88
59154;BME280;44935;48.944;9.418;2023-08-20T08:46:43;99155.94;;;28.48;47.55
59154;BME280;44935;48.944;9.418;2023-08-20T08:49:10;99154.73;;;28.13;47.49
59154;BME280;44935;48.944;9.418;2023-08-20T08:51:39;99152.84;;;27.68;49.35
59154;BME280;44935;48.944;9.418;2023-08-20T08:54:09;99155.03;;;26.39;51.50
59154;BME280;44935;48.944;9.418;2023-08-20T08:56:36;99155.44;;;27.42;51.01
59154;BME280;44935;48.944;9.418;2023-08-20T08:59:03;99156.09;;;27.59;49.77
59154;BME280;44935;48.944;9.418;2023-08-20T09:01:29;99156.47;;;28.00;48.84
59154;BME280;44935;48.944;9.418;2023-08-20T09:03:57;99155.58;;;27.54;49.72
59154;BME280;44935;48.944;9.418;2023-08-20T09:06:24;99154.80;;;26.44;52.44
59154;BME280;44935;48.944;9.418;2023-08-20T09:09:03;99156.79;;;27.49;50.05
59154;BME280;44935;48.944;9.418;2023-08-20T09:11:35;99152.04;;;26.94;49.85
59154;BME280;44935;48.944;9.418;2023-08-20T09:14:02;99154.65;;;28.03;48.31
59154;BME280;44935;48.944;9.418;2023-08-20T09:16:31;99151.55;;;27.08;49.65
59154;BME280;44935;48.944;9.418;2023-08-20T09:19:00;99154.77;;;28.53;47.05
59154;BME280;44935;48.944;9.418;2023-08-20T09:21:28;99154.95;;;27.88;46.29
59154;BME280;44935;48.944;9.418;2023-08-20T09:23:55;99152.20;;;28.14;48.14
59154;BME280;44935;48.944;9.418;2023-08-20T09:26:23;99155.72;;;27.95;47.37
59154;BME280;44935;48.944;9.418;2023-08-20T09:28:49;99155.61;;;27.84;46.80
59154;BME280;44935;48.944;9.418;2023-08-20T09:31:16;99156.03;;;27.42;47.78
59154;BME280;44935;48.944;9.418;2023-08-20T09:33:49;99153.35;;;27.75;48.16
59154;BME280;44935;48.944;9.418;2023-08-20T09:36:17;99152.16;;;26.17;50.23
59154;BME280;44935;48.944;9.418;2023-08-20T09:38:45;99154.35;;;27.35;50.36
59154;BME280;44935;48.944;9.418;2023-08-20T09:41:12;99159.36;;;28.72;46.74
59154;BME280;44935;48.944;9.418;2023-08-20T09:43:41;99161.65;;;29.32;45.06
59154;BME280;44935;48.944;9.418;2023-08-20T09:46:10;99161.63;;;29.04;45.59
59154;BME280;44935;48.944;9.418;2023-08-20T09:48:41;99161.63;;;28.55;45.80
59154;BME280;44935;48.944;9.418;2023-08-20T09:51:11;99159.51;;;28.14;45.87
59154;BME280;44935;48.944;9.418;2023-08-20T09:53:43;99153.91;;;29.60;44.71
59154;BME280;44935;48.944;9.418;2023-08-20T09:56:19;99154.03;;;28.58;46.18
59154;BME280;44935;48.944;9.418;2023-08-20T09:58:48;99149.88;;;28.89;44.40
59154;BME280;44935;48.944;9.418;2023-08-20T10:01:16;99144.87;;;29.18;44.17
59154;BME280;44935;48.944;9.418;2023-08-20T10:03:44;99141.58;;;29.51;43.90
59154;BME280;44935;48.944;9.418;2023-08-20T10:06:12;99145.74;;;29.91;44.28
59154;BME280;44935;48.944;9.418;2023-08-20T10:08:39;99146.38;;;29.44;44.11
59154;BME280;44935;48.944;9.418;2023-08-20T10:11:06;99149.55;;;28.70;44.62
59154;BME280;44935;48.944;9.418;2023-08-20T10:13:33;99141.80;;;29.49;44.24
59154;BME280;44935;48.944;9.418;2023-08-20T10:16:00;99143.94;;;28.85;45.97
59154;BME280;44935;48.944;9.418;2023-08-20T10:18:27;99140.70;;;29.25;45.99
59154;BME280;44935;48.944;9.418;2023-08-20T10:20:57;99134.78;;;29.72;43.34
59154;BME280;44935;48.944;9.418;2023-08-20T10:23:24;99138.68;;;30.39;42.66
59154;BME280;44935;48.944;9.418;2023-08-20T10:25:52;99139.04;;;30.44;41.68
59154;BME280;44935;48.944;9.418;2023-08-20T10:28:23;99138.56;;;29.96;43.20
59154;BME280;44935;48.944;9.418;2023-08-20T10:31:08;99139.75;;;30.02;43.47
59154;BME280;44935;48.944;9.418;2023-08-20T10:33:37;99139.07;;;30.04;41.97
59154;BME280;44935;48.944;9.418;2023-08-20T10:36:08;99138.64;;;30.66;42.55
59154;BME280;44935;48.944;9.418;2023-08-20T10:38:36;99134.98;;;30.17;42.88
59154;BME280;44935;48.944;9.418;2023-08-20T10:41:07;99135.33;;;29.87;43.80
59154;BME280;44935;48.944;9.418;2023-08-20T10:43:35;99137.78;;;28.62;44.70
59154;BME280;44935;48.944;9.418;2023-08-20T10:46:20;99135.34;;;29.23;44.06
59154;BME280;44935;48.944;9.418;2023-08-20T10:48:48;99136.50;;;30.10;42.99
59154;BME280;44935;48.944;9.418;2023-08-20T10:51:16;99135.71;;;29.54;42.65
59154;BME280;44935;48.944;9.418;2023-08-20T10:53:48;99137.65;;;30.52;41.30
59154;BME280;44935;48.944;9.418;2023-08-20T10:56:16;99136.72;;;30.56;40.91
59154;BME280;44935;48.944;9.418;2023-08-20T10:58:45;99137.97;;;29.81;41.08
59154;BME280;44935;48.944;9.418;2023-08-20T11:01:15;99134.05;;;29.88;40.78
59154;BME280;44935;48.944;9.418;2023-08-20T11:03:43;99133.23;;;30.14;39.34
59154;BME280;44935;48.944;9.418;2023-08-20T11:06:11;99133.43;;;28.98;40.43
59154;BME280;44935;48.944;9.418;2023-08-20T11:08:38;99130.51;;;30.40;37.77
59154;BME280;44935;48.944;9.418;2023-08-20T11:11:07;99131.45;;;29.44;39.23
59154;BME280;44935;48.944;9.418;2023-08-20T11:13:34;99128.58;;;29.79;39.53
59154;BME280;44935;48.944;9.418;2023-08-20T11:16:03;99129.11;;;29.55;39.99
59154;BME280;44935;48.944;9.418;2023-08-20T11:18:31;99128.09;;;29.89;39.71
59154;BME280;44935;48.944;9.418;2023-08-20T11:20:59;99125.10;;;30.70;37.62
59154;BME280;44935;48.944;9.418;2023-08-20T11:23:27;99124.81;;;30.82;39.24
59154;BME280;44935;48.944;9.418;2023-08-20T11:25:55;99123.83;;;31.42;36.20
59154;BME280;44935;48.944;9.418;2023-08-20T11:28:22;99122.62;;;31.61;37.36
59154;BME280;44935;48.944;9.418;2023-08-20T11:30:51;99119.45;;;31.52;36.76
59154;BME280;44935;48.944;9.418;2023-08-20T11:33:19;99112.84;;;32.12;37.96
59154;BME280;44935;48.944;9.418;2023-08-20T11:35:46;99115.84;;;31.39;36.91
59154;BME280;44935;48.944;9.418;2023-08-20T11:38:13;99112.74;;;31.69;39.16
59154;BME280;44935;48.944;9.418;2023-08-20T11:40:41;99109.70;;;31.27;37.45
59154;BME280;44935;48.944;9.418;2023-08-20T11:43:08;99106.53;;;31.35;37.99
59154;BME280;44935;48.944;9.418;2023-08-20T11:45:44;99106.91;;;31.43;36.22
59154;BME280;44935;48.944;9.418;2023-08-20T11:48:12;99103.00;;;31.07;36.64
59154;BME280;44935;48.944;9.418;2023-08-20T11:50:39;99105.54;;;32.20;34.97
59154;BME280;44935;48.944;9.418;2023-08-20T11:53:07;99106.13;;;32.19;35.10
59154;BME280;44935;48.944;9.418;2023-08-20T11:55:34;99102.31;;;31.59;36.63
59154;BME280;44935;48.944;9.418;2023-08-20T11:58:01;99106.31;;;32.34;34.35
59154;BME280;44935;48.944;9.418;2023-08-20T12:00:31;99103.35;;;31.99;37.19
59154;BME280;44935;48.944;9.418;2023-08-20T12:02:58;99102.81;;;32.19;36.55
59154;BME280;44935;48.944;9.418;2023-08-20T12:05:27;99101.32;;;32.02;36.83
59154;BME280;44935;48.944;9.418;2023-08-20T12:07:56;99100.15;;;32.03;36.73
59154;BME280;44935;48.944;9.418;2023-08-20T12:10:24;99098.20;;;31.34;36.39
59154;BME280;44935;48.944;9.418;2023-08-20T12:12:52;99097.90;;;30.99;37.33
59154;BME280;44935;48.944;9.418;2023-08-20T12:15:20;99094.27;;;31.59;36.61
59154;BME280;44935;48.944;9.418;2023-08-20T12:17:56;99092.84;;;31.50;37.32
59154;BME280;44935;48.944;9.418;2023-08-20T12:20:26;99093.85;;;32.63;36.57
59154;BME280;44935;48.944;9.418;2023-08-20T12:22:53;99090.92;;;31.55;36.05
59154;BME280;44935;48.944;9.418;2023-08-20T12:25:20;99092.21;;;32.20;36.65
59154;BME280;44935;48.944;9.418;2023-08-20T12:27:47;99092.15;;;32.20;35.72
59154;BME280;44935;48.944;9.418;2023-08-20T12:30:14;99084.51;;;32.11;37.13
59154;BME280;44935;48.944;9.418;2023-08-20T12:32:41;99083.55;;;31.53;38.00
59154;BME280;44935;48.944;9.418;2023-08-20T12:35:08;99081.85;;;32.11;36.46
59154;BME280;44935;48.944;9.418;2023-08-20T12:37:35;99078.29;;;31.16;36.03
59154;BME280;44935;48.944;9.418;2023-08-20T12:40:03;99075.18;;;31.10;36.26
59154;BME280;44935;48.944;9.418;2023-08-20T12:42:30;99074.88;;;32.08;36.67
59154;BME280;44935;48.944;9.418;2023-08-20T12:44:57;99078.71;;;32.70;35.83
59154;BME280;44935;48.944;9.418;2023-08-20T12:47:24;99074.24;;;30.68;37.39
59154;BME280;44935;48.944;9.418;2023-08-20T12:49:51;99074.72;;;30.21;37.73
59154;BME280;44935;48.944;9.418;2023-08-20T12:52:18;99067.13;;;30.86;37.03
59154;BME280;44935;48.944;9.418;2023-08-20T12:54:45;99068.22;;;31.21;38.51
59154;BME280;44935;48.944;9.418;2023-08-20T12:57:12;99067.81;;;31.52;36.65
59154;BME280;44935;48.944;9.418;2023-08-20T12:59:39;99063.87;;;32.16;37.20
59154;BME280;44935;48.944;9.418;2023-08-20T13:02:06;99062.07;;;32.04;37.09